createdAt,value
2019-06-08T00:04:29.488Z,15.20
2019-06-08T00:10:34.096Z,14.87
2019-06-08T00:16:38.650Z,15.03
2019-06-08T00:22:43.259Z,14.69
2019-06-08T00:28:47.846Z,14.65
2019-06-08T00:34:52.394Z,14.71
2019-06-08T00:40:56.992Z,14.59
2019-06-08T00:47:01.533Z,14.55
2019-06-08T00:53:06.079Z,14.65
2019-06-08T00:59:10.621Z,14.46
2019-06-08T01:05:15.687Z,14.51
2019-06-08T01:11:22.547Z,14.36
2019-06-08T01:17:27.573Z,14.58
2019-06-08T01:23:32.248Z,14.24
2019-06-08T01:29:36.795Z,14.31
2019-06-08T01:35:41.348Z,14.44
2019-06-08T01:41:45.899Z,14.35
2019-06-08T01:47:50.447Z,14.23
2019-06-08T01:53:55.008Z,14.30
2019-06-08T01:59:59.565Z,14.17
2019-06-08T02:06:04.342Z,14.28
2019-06-08T02:12:08.908Z,14.09
2019-06-08T02:18:13.470Z,14.10
2019-06-08T02:24:18.018Z,13.93
2019-06-08T02:30:23.301Z,13.84
2019-06-08T02:36:28.789Z,13.96
2019-06-08T02:42:35.331Z,13.89
2019-06-08T02:49:01.811Z,13.85
2019-06-08T02:54:47.592Z,13.70
2019-06-08T03:00:54.853Z,13.66
2019-06-08T03:07:01.595Z,13.44
2019-06-08T03:13:06.718Z,13.37
2019-06-08T03:19:21.737Z,13.37
2019-06-08T03:25:17.549Z,13.23
2019-06-08T03:31:22.134Z,13.43
2019-06-08T03:37:26.828Z,13.14
2019-06-08T03:43:31.436Z,13.18
2019-06-08T03:49:44.842Z,13.25
2019-06-08T03:55:44.947Z,13.35
2019-06-08T04:01:50.713Z,13.45
2019-06-08T04:07:55.338Z,13.44
2019-06-08T04:13:59.875Z,13.43
2019-06-08T04:20:11.257Z,13.45
2019-06-08T04:26:12.404Z,13.41
2019-06-08T04:32:16.948Z,13.44
2019-06-08T04:38:21.510Z,13.41
2019-06-08T04:44:26.066Z,13.51
2019-06-08T04:50:30.629Z,13.82
2019-06-08T04:56:36.716Z,13.71
2019-06-08T05:02:44.680Z,13.81
2019-06-08T05:08:49.602Z,13.66
2019-06-08T05:14:54.433Z,13.90
2019-06-08T05:20:58.969Z,14.07
2019-06-08T05:27:03.585Z,14.16
2019-06-08T05:33:08.135Z,14.28
2019-06-08T05:39:12.668Z,14.43
2019-06-08T05:45:17.464Z,14.40
2019-06-08T05:51:22.015Z,14.69
2019-06-08T05:57:26.705Z,14.81
2019-06-08T06:03:31.395Z,14.94
2019-06-08T06:09:36.154Z,15.26
2019-06-08T06:15:40.954Z,15.19
2019-06-08T06:21:45.629Z,15.27
2019-06-08T06:27:50.180Z,14.87
2019-06-08T06:33:54.891Z,14.54
2019-06-08T06:39:59.526Z,14.75
2019-06-08T06:46:04.146Z,15.06
2019-06-08T06:52:08.768Z,15.40
2019-06-08T06:58:13.342Z,15.67
2019-06-08T07:04:18.251Z,16.01
2019-06-08T07:10:22.823Z,16.29
2019-06-08T07:16:27.364Z,16.54
2019-06-08T07:22:31.933Z,16.43
2019-06-08T07:28:36.477Z,16.52
2019-06-08T07:34:41.292Z,16.93
2019-06-08T07:40:47.235Z,16.96
2019-06-08T07:46:53.650Z,16.74
2019-06-08T07:52:58.876Z,17.07
2019-06-08T07:59:03.595Z,17.11
2019-06-08T08:05:08.510Z,17.00
2019-06-08T08:11:13.137Z,17.66
2019-06-08T08:17:17.721Z,17.85
2019-06-08T08:23:22.344Z,18.20
2019-06-08T08:29:28.187Z,18.34
2019-06-08T08:35:33.365Z,18.87
2019-06-08T08:41:38.960Z,18.86
2019-06-08T08:47:43.811Z,19.06
2019-06-08T08:53:55.868Z,18.75
2019-06-08T09:00:02.806Z,19.23
2019-06-08T09:06:05.534Z,19.69
2019-06-08T09:12:10.091Z,19.73
2019-06-08T09:18:15.631Z,19.81
2019-06-08T09:24:20.339Z,20.25
2019-06-08T09:30:27.394Z,20.31
2019-06-08T09:36:31.357Z,19.87
2019-06-08T09:42:36.028Z,19.94
2019-06-08T09:48:40.676Z,19.74
2019-06-08T09:54:47.999Z,19.38
2019-06-08T10:00:51.694Z,19.94
2019-06-08T10:07:00.165Z,20.53
2019-06-08T10:13:09.356Z,20.86
2019-06-08T10:19:13.725Z,21.29
2019-06-08T10:25:18.402Z,21.53
2019-06-08T10:31:35.646Z,21.74
2019-06-08T10:37:29.467Z,21.74
2019-06-08T10:43:34.147Z,21.79
2019-06-08T10:49:38.743Z,20.90
2019-06-08T10:55:48.184Z,21.48
2019-06-08T11:01:53.816Z,21.49
2019-06-08T11:08:00.351Z,21.81
2019-06-08T11:14:07.363Z,22.13
2019-06-08T11:20:13.708Z,22.65
2019-06-08T11:26:23.830Z,22.37
2019-06-08T11:32:24.783Z,20.69
2019-06-08T11:38:29.465Z,21.02
2019-06-08T11:44:35.891Z,21.05
2019-06-08T11:50:42.471Z,21.17
2019-06-08T11:56:48.224Z,21.36
2019-06-08T12:02:53.005Z,20.74
2019-06-08T12:09:00.121Z,20.56
2019-06-08T12:15:10.063Z,20.47
2019-06-08T12:21:14.610Z,21.19
2019-06-08T12:27:29.904Z,21.39
2019-06-08T12:33:30.537Z,20.90
2019-06-08T12:39:33.790Z,20.60
2019-06-08T12:45:38.564Z,21.12
2019-06-08T12:51:43.253Z,22.37
2019-06-08T12:57:48.429Z,21.95
2019-06-08T13:03:54.430Z,21.03
2019-06-08T13:10:00.051Z,21.25
2019-06-08T13:16:04.753Z,21.24
2019-06-08T13:22:10.748Z,21.36
2019-06-08T13:28:19.373Z,21.23
2019-06-08T13:34:24.044Z,22.95
2019-06-08T13:40:30.861Z,23.60
2019-06-08T13:46:37.929Z,23.66
2019-06-08T13:52:42.634Z,24.45
2019-06-08T13:58:48.459Z,24.63
2019-06-08T14:04:53.321Z,24.46
2019-06-08T14:11:01.133Z,22.92
2019-06-08T14:17:08.344Z,22.73
2019-06-08T14:23:12.230Z,22.98
2019-06-08T14:29:20.219Z,24.05
2019-06-08T14:35:24.206Z,25.22
2019-06-08T14:41:31.528Z,24.22
2019-06-08T14:47:37.673Z,24.50
2019-06-08T14:53:42.393Z,23.64
2019-06-08T14:59:50.112Z,23.56
2019-06-08T15:05:53.450Z,24.21
2019-06-08T15:12:02.184Z,25.07
2019-06-08T15:18:11.107Z,24.71
2019-06-08T15:24:18.379Z,23.50
2019-06-08T15:30:21.972Z,22.90
2019-06-08T15:36:29.792Z,22.31
2019-06-08T15:42:34.307Z,22.46
2019-06-08T15:48:38.933Z,23.22
2019-06-08T15:54:43.499Z,22.85
2019-06-08T16:00:48.184Z,23.18
2019-06-08T16:06:52.869Z,23.42
2019-06-08T16:12:57.461Z,23.15
2019-06-08T16:19:02.084Z,22.59
2019-06-08T16:25:08.513Z,22.92
2019-06-08T16:31:13.983Z,23.34
2019-06-08T16:37:18.584Z,24.37
2019-06-08T16:43:26.879Z,25.93
2019-06-08T16:49:31.275Z,26.62
2019-06-08T16:55:36.142Z,26.81
2019-06-08T17:01:40.849Z,24.87
2019-06-08T17:07:45.499Z,23.81
2019-06-08T17:13:50.053Z,27.05
2019-06-08T17:19:54.745Z,27.74
2019-06-08T17:26:03.328Z,29.40
2019-06-08T17:32:07.969Z,28.00
2019-06-08T17:38:15.599Z,24.39
2019-06-08T17:44:22.724Z,25.11
2019-06-08T17:50:32.688Z,26.45
2019-06-08T17:56:37.155Z,26.79
2019-06-08T18:02:43.665Z,27.10
2019-06-08T18:08:49.844Z,27.65
2019-06-08T18:14:54.494Z,28.09
2019-06-08T18:20:59.096Z,26.70
2019-06-08T18:27:03.802Z,23.14
2019-06-08T18:33:08.473Z,21.47
2019-06-08T18:39:13.036Z,20.13
2019-06-08T18:45:20.114Z,19.41
2019-06-08T18:51:28.074Z,20.46
2019-06-08T18:57:32.767Z,19.62
2019-06-08T19:03:42.284Z,18.91
2019-06-08T19:09:48.071Z,18.65
2019-06-08T19:15:54.834Z,18.33
2019-06-08T19:21:59.458Z,17.99
2019-06-08T19:28:04.216Z,17.60
2019-06-08T19:34:08.802Z,17.36
2019-06-08T19:40:13.433Z,17.08
2019-06-08T19:46:18.519Z,16.93
2019-06-08T19:52:26.125Z,16.51
2019-06-08T19:58:30.793Z,16.65
2019-06-08T20:04:35.755Z,16.33
2019-06-08T20:10:41.673Z,16.46
2019-06-08T20:16:49.297Z,16.28
2019-06-08T20:22:53.619Z,15.92
2019-06-08T20:29:12.182Z,15.43
2019-06-08T20:35:08.797Z,15.37
2019-06-08T20:41:13.420Z,15.25
2019-06-08T20:47:20.907Z,15.32
2019-06-08T20:53:28.125Z,15.43
2019-06-08T20:59:34.313Z,15.31
2019-06-08T21:05:38.264Z,15.08
2019-06-08T21:11:49.366Z,14.95
2019-06-08T21:17:53.814Z,14.74
2019-06-08T21:24:01.014Z,14.46
2019-06-08T21:30:18.984Z,14.16
2019-06-08T21:36:13.052Z,14.29
2019-06-08T21:42:20.129Z,14.40
2019-06-08T21:48:28.213Z,14.36
2019-06-08T21:54:32.785Z,14.25
2019-06-08T22:00:42.749Z,14.04
2019-06-08T22:06:43.926Z,13.87
2019-06-08T22:12:48.702Z,13.98
2019-06-08T22:18:54.807Z,13.73
2019-06-08T22:25:01.064Z,13.90
2019-06-08T22:31:07.921Z,14.06
2019-06-08T22:37:12.123Z,14.18
2019-06-08T22:43:18.976Z,14.30
2019-06-08T22:49:23.059Z,14.44
2019-06-08T22:55:27.869Z,14.58
2019-06-08T23:01:32.444Z,14.80
2019-06-08T23:07:38.631Z,14.66
2019-06-08T23:13:43.191Z,14.63
2019-06-08T23:19:48.155Z,14.12
2019-06-08T23:25:52.934Z,13.92
2019-06-08T23:32:01.081Z,13.77
2019-06-08T23:38:07.698Z,13.66
2019-06-08T23:44:11.870Z,13.55
2019-06-08T23:50:17.842Z,13.46
2019-06-08T23:56:22.566Z,13.03
